Time;durP1;ratioP1;P1;durP2;ratioP2;P2;SDS_P1;SDS_P2;PMS_P1;PMS_P2;Temp;Humidity;BMP_temperature;BMP_pressure;BME280_temperature;BME280_humidity;BME280_pressure;Samples;Min_cycle;Max_cycle;Signal;HPM_P1;HPM_P2
2020/12/05 00:00:22;;;;;;;2.00;1.38;;;;;;;3.13;85.09;96879.75;2023188;80;20422;-79
2020/12/05 00:03:23;;;;;;;2.49;1.35;;;;;;;3.12;85.00;96879.75;2024201;80;20831;-79
2020/12/05 00:06:25;;;;;;;2.88;1.36;;;;;;;3.10;84.97;96874.66;2023506;80;20328;-79
2020/12/05 00:09:26;;;;;;;2.39;1.30;;;;;;;3.08;84.92;96876.41;2022937;80;20376;-79
2020/12/05 00:12:29;;;;;;;2.58;1.46;;;;;;;3.07;84.96;96882.41;2023103;80;20921;-80
2020/12/05 00:15:31;;;;;;;2.97;1.75;;;;;;;3.07;84.99;96889.25;2023436;80;20304;-79
2020/12/05 00:18:33;;;;;;;3.41;2.21;;;;;;;3.03;85.05;96875.59;2022735;80;20765;-79
2020/12/05 00:21:34;;;;;;;2.47;1.84;;;;;;;3.03;85.17;96876.44;2023469;80;20351;-79
2020/12/05 00:24:36;;;;;;;3.39;1.90;;;;;;;3.03;85.18;96888.41;2022592;80;20986;-79
2020/12/05 00:27:38;;;;;;;3.03;2.16;;;;;;;3.04;85.07;96900.38;2022134;80;20370;-79
2020/12/05 00:30:39;;;;;;;3.22;2.15;;;;;;;3.00;85.04;96912.38;2023628;80;20312;-79
2020/12/05 00:33:41;;;;;;;5.94;1.95;;;;;;;2.99;85.08;96922.66;2064231;69;20385;-78
2020/12/05 00:36:43;;;;;;;4.57;2.05;;;;;;;3.00;85.16;96914.09;2022340;80;20362;-79
2020/12/05 00:39:44;;;;;;;3.06;2.01;;;;;;;3.00;85.34;96926.91;2022141;80;21166;-78
2020/12/05 00:42:46;;;;;;;2.05;1.84;;;;;;;3.02;85.49;96931.16;2021570;80;20357;-78
2020/12/05 00:45:50;;;;;;;3.14;1.90;;;;;;;3.04;85.41;96944.78;2023042;80;20439;-78
2020/12/05 00:48:52;;;;;;;1.94;1.46;;;;;;;3.02;85.25;96953.38;2023162;80;20817;-78
2020/12/05 00:51:54;;;;;;;2.11;1.80;;;;;;;2.97;85.46;96952.59;2022534;80;20344;-78
2020/12/05 00:54:55;;;;;;;2.42;1.80;;;;;;;2.98;85.59;96965.38;2023361;80;20478;-78
2020/12/05 00:57:57;;;;;;;1.91;1.73;;;;;;;2.97;85.54;96963.69;2022438;80;20331;-78
2020/12/05 01:00:58;;;;;;;2.86;1.80;;;;;;;2.95;85.60;96965.44;2022800;80;20361;-78
2020/12/05 01:04:01;;;;;;;4.34;1.96;;;;;;;2.98;85.60;96967.09;2023527;80;20643;-78
2020/12/05 01:07:02;;;;;;;3.35;2.39;;;;;;;2.95;85.69;96965.44;2022737;80;20438;-78
2020/12/05 01:10:05;;;;;;;3.19;2.30;;;;;;;2.98;85.76;96972.22;2023178;80;20356;-78
2020/12/05 01:13:07;;;;;;;2.94;2.20;;;;;;;3.00;85.83;96968.78;2022663;80;20454;-78
2020/12/05 01:16:12;;;;;;;3.51;2.34;;;;;;;3.03;85.71;96973.84;2022635;80;20353;-78
2020/12/05 01:19:14;;;;;;;4.14;2.38;;;;;;;3.00;85.73;96973.91;2022022;80;20434;-78
2020/12/05 01:22:19;;;;;;;3.08;2.14;;;;;;;3.01;85.74;96983.28;2021557;80;20312;-78
2020/12/05 01:25:20;;;;;;;2.83;2.17;;;;;;;3.03;85.76;96980.69;2023277;80;20662;-78
2020/12/05 01:28:22;;;;;;;4.75;2.38;;;;;;;3.03;85.83;96978.13;2023179;80;20340;-78
2020/12/05 01:31:23;;;;;;;2.89;2.14;;;;;;;3.03;85.90;96984.09;2019699;80;20359;-78
2020/12/05 01:34:25;;;;;;;2.24;1.98;;;;;;;3.03;85.87;96986.66;2023796;80;20328;-78
2020/12/05 01:37:26;;;;;;;4.00;1.89;;;;;;;3.04;85.87;96992.66;2023398;80;20941;-78
2020/12/05 01:40:28;;;;;;;3.05;1.85;;;;;;;3.06;85.74;96993.50;2023472;80;20311;-78
2020/12/05 01:43:31;;;;;;;3.76;1.80;;;;;;;3.08;85.67;96996.88;2023267;80;20309;-78
2020/12/05 01:46:39;;;;;;;3.44;1.88;;;;;;;3.06;85.84;97001.19;2023748;80;20350;-78
2020/12/05 01:49:41;;;;;;;3.55;2.20;;;;;;;3.07;85.85;97002.03;2023169;80;20315;-78
2020/12/05 01:52:44;;;;;;;2.65;1.91;;;;;;;3.10;86.07;97005.41;2023112;80;20341;-79
2020/12/05 01:55:47;;;;;;;2.95;1.89;;;;;;;3.10;86.09;97018.22;2024475;80;20897;-78
2020/12/05 01:58:48;;;;;;;3.17;1.88;;;;;;;3.13;86.02;97017.31;2023465;80;20850;-79
2020/12/05 02:02:00;;;;;;;2.63;1.92;;;;;;;3.16;85.96;97019.84;2022592;80;20329;-78
2020/12/05 02:05:12;;;;;;;3.16;1.67;;;;;;;3.18;85.86;97025.78;2023747;80;20364;-78
2020/12/05 02:08:23;;;;;;;3.19;1.90;;;;;;;3.16;85.70;97023.25;2023350;80;20323;-78
2020/12/05 02:11:30;;;;;;;1.85;1.55;;;;;;;3.17;85.84;97022.38;2023729;80;20345;-78
2020/12/05 02:14:36;;;;;;;2.96;2.06;;;;;;;3.21;85.80;97018.91;2021098;80;20965;-78
2020/12/05 02:17:58;;;;;;;3.44;1.59;;;;;;;3.24;85.66;97024.00;2022867;80;20320;-78
2020/12/05 02:21:03;;;;;;;2.15;1.67;;;;;;;3.27;85.56;97033.38;2023359;80;20338;-79
2020/12/05 02:24:05;;;;;;;2.36;1.70;;;;;;;3.25;85.57;97042.81;2024206;80;20332;-78
2020/12/05 02:27:07;;;;;;;3.69;1.58;;;;;;;3.22;85.66;97045.41;2023348;80;20304;-78
2020/12/05 02:30:10;;;;;;;2.84;1.40;;;;;;;3.20;85.77;97055.66;2022407;80;20337;-78
2020/12/05 02:33:12;;;;;;;2.46;1.52;;;;;;;3.19;85.68;97053.13;2023368;80;20437;-78
2020/12/05 02:36:13;;;;;;;1.90;1.64;;;;;;;3.17;85.63;97054.88;2022189;80;20332;-78
2020/12/05 02:39:17;;;;;;;3.13;1.44;;;;;;;3.17;85.57;97054.88;2023194;80;20352;-78
2020/12/05 02:42:18;;;;;;;3.16;1.36;;;;;;;3.15;85.52;97054.88;2023176;80;20320;-78
2020/12/05 02:45:20;;;;;;;1.66;1.25;;;;;;;3.14;85.49;97057.47;2023196;80;20308;-78
2020/12/05 02:48:22;;;;;;;2.17;1.08;;;;;;;3.10;85.42;97060.97;2022747;80;20335;-78
2020/12/05 02:51:23;;;;;;;1.80;1.61;;;;;;;3.08;85.68;97065.25;2022350;80;20300;-78
2020/12/05 02:54:25;;;;;;;1.77;1.27;;;;;;;3.10;85.70;97078.91;2023203;80;20320;-78
2020/12/05 02:57:26;;;;;;;3.75;1.70;;;;;;;3.08;85.58;97085.75;2023763;80;20337;-77
2020/12/05 03:00:28;;;;;;;1.71;1.40;;;;;;;3.04;85.51;97092.63;2023241;80;20760;-78
2020/12/05 03:03:30;;;;;;;1.38;1.27;;;;;;;2.98;85.71;97092.69;2024556;80;20327;-79
2020/12/05 03:06:31;;;;;;;2.03;1.45;;;;;;;2.96;85.73;97092.72;2024079;80;21213;-78
2020/12/05 03:09:33;;;;;;;3.00;1.40;;;;;;;2.96;85.67;97092.72;2024734;80;20854;-78
2020/12/05 03:12:35;;;;;;;1.99;1.23;;;;;;;2.94;85.55;97101.28;2023395;80;20332;-78
2020/12/05 03:15:36;;;;;;;1.61;1.50;;;;;;;2.93;85.48;97113.25;2024335;80;20320;-78
2020/12/05 03:18:38;;;;;;;1.70;1.44;;;;;;;2.92;85.46;97118.41;2024561;80;20373;-78
2020/12/05 03:21:39;;;;;;;1.59;1.45;;;;;;;2.90;85.49;97123.56;2023692;80;20850;-78
2020/12/05 03:24:41;;;;;;;1.83;1.64;;;;;;;2.90;85.43;97131.25;2023871;80;20328;-78
2020/12/05 03:27:42;;;;;;;2.13;1.84;;;;;;;2.87;85.50;97135.53;2023846;80;20348;-78
2020/12/05 03:30:44;;;;;;;2.96;2.11;;;;;;;2.83;85.83;97137.28;2023977;80;20328;-78
2020/12/05 03:33:46;;;;;;;2.45;2.04;;;;;;;2.89;86.11;97139.78;2023989;80;20353;-78
2020/12/05 03:36:47;;;;;;;3.06;2.15;;;;;;;2.96;86.09;97153.38;2027204;80;20344;-78
2020/12/05 03:39:50;;;;;;;2.15;1.75;;;;;;;2.99;86.16;97161.03;2025592;80;20307;-77
2020/12/05 03:42:51;;;;;;;2.19;1.99;;;;;;;2.99;86.32;97163.59;2024134;80;20342;-78
2020/12/05 03:45:53;;;;;;;1.88;1.73;;;;;;;3.02;86.52;97161.84;2024413;80;20695;-78
2020/12/05 03:48:54;;;;;;;2.56;2.33;;;;;;;3.07;86.46;97172.06;2023708;80;20332;-77
2020/12/05 03:51:56;;;;;;;2.55;2.25;;;;;;;3.10;86.38;97173.75;2024061;80;20328;-77
2020/12/05 03:54:58;;;;;;;3.74;2.64;;;;;;;3.15;86.45;97177.09;2024839;80;20795;-78
2020/12/05 03:58:01;;;;;;;2.47;2.30;;;;;;;3.19;86.51;97176.19;2024649;80;20332;-79
2020/12/05 04:01:02;;;;;;;2.99;2.14;;;;;;;3.22;86.44;97183.84;2023702;80;20367;-78
2020/12/05 04:04:04;;;;;;;2.63;2.36;;;;;;;3.25;86.49;97176.16;2022928;80;20353;-77
2020/12/05 04:07:05;;;;;;;2.69;2.29;;;;;;;3.25;86.48;97173.59;2023338;80;20816;-78
2020/12/05 04:10:07;;;;;;;3.41;2.51;;;;;;;3.29;86.49;97172.69;2023220;80;20969;-78
2020/12/05 04:13:10;;;;;;;2.53;2.15;;;;;;;3.31;86.44;97174.34;2022916;80;20312;-78
2020/12/05 04:16:12;;;;;;;2.94;2.17;;;;;;;3.33;86.46;97177.75;2023105;80;20357;-77
2020/12/05 04:19:13;;;;;;;2.85;2.58;;;;;;;3.36;86.57;97184.56;2023305;80;20373;-78
2020/12/05 04:22:15;;;;;;;2.54;2.08;;;;;;;3.37;86.55;97176.00;2023155;80;20924;-78
2020/12/05 04:25:17;;;;;;;2.31;2.11;;;;;;;3.40;86.51;97183.66;2022853;80;20723;-77
2020/12/05 04:28:18;;;;;;;2.34;1.85;;;;;;;3.42;86.56;97187.06;2022604;80;20358;-78
2020/12/05 04:31:20;;;;;;;2.64;2.44;;;;;;;3.44;86.60;97181.91;2022884;80;20826;-78
2020/12/05 04:34:21;;;;;;;3.13;2.16;;;;;;;3.47;86.59;97181.88;2022506;80;20325;-78
2020/12/05 04:37:24;;;;;;;2.83;2.42;;;;;;;3.47;86.52;97182.72;2018942;80;20335;-78
2020/12/05 04:40:26;;;;;;;3.29;2.15;;;;;;;3.48;86.48;97194.69;2023335;80;20324;-78
2020/12/05 04:43:28;;;;;;;2.59;2.39;;;;;;;3.49;86.48;97198.94;2022911;80;20393;-78
2020/12/05 04:46:31;;;;;;;2.90;2.61;;;;;;;3.47;86.41;97197.28;2023217;80;20332;-78
2020/12/05 04:49:35;;;;;;;2.97;2.74;;;;;;;3.46;86.27;97209.25;2023210;80;20367;-78
2020/12/05 04:52:40;;;;;;;2.14;2.03;;;;;;;3.44;86.42;97217.84;2022991;80;20319;-78
2020/12/05 04:55:42;;;;;;;2.22;2.06;;;;;;;3.42;86.28;97225.56;2022772;80;20332;-79
2020/12/05 04:58:48;;;;;;;2.35;2.11;;;;;;;3.41;86.24;97238.38;2026084;80;20357;-78
2020/12/05 05:01:51;;;;;;;2.15;1.96;;;;;;;3.39;86.35;97243.50;2022575;80;20308;-78
2020/12/05 05:04:53;;;;;;;2.34;2.13;;;;;;;3.38;86.46;97246.94;2023277;80;20348;-78
2020/12/05 05:07:55;;;;;;;2.41;2.21;;;;;;;3.38;86.64;97256.34;2022547;80;20754;-79
2020/12/05 05:11:11;;;;;;;2.20;2.06;;;;;;;3.38;86.65;97262.34;2022578;80;20316;-78
2020/12/05 05:14:15;;;;;;;2.44;2.24;;;;;;;3.40;86.88;97267.44;2022811;80;20377;-78
2020/12/05 05:17:17;;;;;;;2.70;2.50;;;;;;;3.41;86.99;97281.97;2023235;80;20312;-78
2020/12/05 05:20:20;;;;;;;2.54;2.14;;;;;;;3.43;87.01;97295.66;2023020;80;20329;-78
2020/12/05 05:23:21;;;;;;;2.53;2.33;;;;;;;3.45;87.00;97301.63;2022456;80;20800;-78
2020/12/05 05:26:23;;;;;;;3.21;2.64;;;;;;;3.50;87.00;97315.25;2021788;80;20331;-78
2020/12/05 05:29:28;;;;;;;2.39;2.19;;;;;;;3.51;87.08;97320.34;2022444;80;20527;-78
2020/12/05 05:32:29;;;;;;;1.92;1.83;;;;;;;3.55;87.05;97328.88;2023017;80;20777;-79
2020/12/05 05:35:36;;;;;;;2.29;2.09;;;;;;;3.58;87.04;97331.41;2022794;80;20334;-79
2020/12/05 05:38:38;;;;;;;2.06;1.96;;;;;;;3.63;86.97;97334.78;2022769;80;20336;-78
2020/12/05 05:41:49;;;;;;;1.60;1.50;;;;;;;3.64;86.92;97345.03;2022785;80;20303;-78
2020/12/05 05:44:50;;;;;;;1.55;1.31;;;;;;;3.67;86.84;97341.56;2023607;80;20356;-79
2020/12/05 05:48:00;;;;;;;1.73;1.63;;;;;;;3.69;86.84;97337.28;2022868;80;20341;-79
2020/12/05 05:51:02;;;;;;;1.79;1.67;;;;;;;3.72;86.74;97338.97;2022952;80;20343;-79
2020/12/05 05:54:13;;;;;;;2.34;1.56;;;;;;;3.70;86.49;97341.53;2022175;80;20377;-78
2020/12/05 05:57:15;;;;;;;1.48;1.38;;;;;;;3.68;86.28;97340.72;2022883;80;20345;-79
2020/12/05 06:00:17;;;;;;;1.46;1.35;;;;;;;3.62;85.89;97346.75;2021992;80;20316;-79
2020/12/05 06:03:23;;;;;;;1.42;1.33;;;;;;;3.53;85.66;97338.28;2022118;80;20341;-78
2020/12/05 06:06:25;;;;;;;1.31;1.24;;;;;;;3.50;85.55;97361.41;2022454;80;20340;-78
2020/12/05 06:09:48;;;;;;;1.80;1.65;;;;;;;3.43;85.40;97362.34;2019711;80;20339;-78
2020/12/05 06:12:52;;;;;;;1.69;1.59;;;;;;;3.38;85.51;97358.94;2022164;80;20716;-78
2020/12/05 06:15:53;;;;;;;2.38;1.51;;;;;;;3.38;85.92;97369.22;2023116;80;20347;-78
2020/12/05 06:18:57;;;;;;;1.85;1.75;;;;;;;3.38;86.00;97362.38;2023510;80;20399;-79
2020/12/05 06:21:59;;;;;;;1.88;1.42;;;;;;;3.40;85.94;97368.34;2023095;80;20307;-78
2020/12/05 06:25:15;;;;;;;1.75;1.65;;;;;;;3.37;85.83;97365.78;2023552;80;20312;-78
2020/12/05 06:28:17;;;;;;;1.76;1.66;;;;;;;3.31;85.86;97369.28;2023970;80;20382;-78
2020/12/05 06:31:38;;;;;;;1.84;1.74;;;;;;;3.27;85.79;97379.56;2023081;80;20342;-78
2020/12/05 06:34:43;;;;;;;2.50;1.89;;;;;;;3.21;85.64;97380.44;2023550;80;20744;-79
2020/12/05 06:37:46;;;;;;;2.29;1.69;;;;;;;3.17;85.74;97393.31;2022218;80;20357;-78
2020/12/05 06:40:48;;;;;;;2.08;1.83;;;;;;;3.16;85.80;97399.31;2022538;80;20371;-78
2020/12/05 06:44:17;;;;;;;1.74;1.64;;;;;;;3.18;86.03;97415.53;2031274;80;20311;-77
2020/12/05 06:47:24;;;;;;;2.01;1.83;;;;;;;3.18;86.12;97423.22;2022580;80;20328;-78
2020/12/05 06:50:35;;;;;;;1.98;1.79;;;;;;;3.17;86.08;97421.53;2023367;80;20179;-78
2020/12/05 06:53:37;;;;;;;1.76;1.66;;;;;;;3.12;85.95;97431.81;2023297;80;20332;-79
2020/12/05 06:56:39;;;;;;;1.61;1.51;;;;;;;3.09;85.85;97436.13;2022952;80;20342;-78
2020/12/05 06:59:40;;;;;;;1.69;1.59;;;;;;;3.06;85.73;97441.28;2023823;80;20832;-80
2020/12/05 07:02:51;;;;;;;1.98;1.84;;;;;;;3.04;85.60;97449.78;2032423;80;20383;-83
2020/12/05 07:05:53;;;;;;;1.67;1.58;;;;;;;2.99;85.58;97459.25;2030603;80;20330;-78
2020/12/05 07:08:55;;;;;;;2.22;1.86;;;;;;;2.96;85.60;97461.81;2023105;80;20911;-78
2020/12/05 07:12:19;;;;;;;1.89;1.79;;;;;;;2.95;85.72;97466.97;2022839;80;20340;-77
2020/12/05 07:15:29;;;;;;;1.69;1.56;;;;;;;2.93;85.99;97477.22;2023946;80;20339;-77
2020/12/05 07:18:31;;;;;;;2.42;1.59;;;;;;;2.90;85.90;97482.38;2021594;80;20331;-78
2020/12/05 07:21:33;;;;;;;2.15;1.90;;;;;;;2.85;85.82;97485.78;2023327;80;20343;-78
2020/12/05 07:24:35;;;;;;;2.31;2.11;;;;;;;2.82;85.84;97490.94;2079870;69;20475;-80
2020/12/05 07:27:37;;;;;;;2.34;1.61;;;;;;;2.78;85.69;97484.97;2023186;80;20340;-78
2020/12/05 07:30:38;;;;;;;1.98;1.54;;;;;;;2.72;85.86;97491.00;2026448;80;20312;-79
2020/12/05 07:33:41;;;;;;;3.53;1.96;;;;;;;2.72;86.20;97491.00;2024880;80;20898;-71
2020/12/05 07:36:42;;;;;;;1.84;1.67;;;;;;;2.65;85.83;97496.13;2022246;80;20437;-71
2020/12/05 07:39:44;;;;;;;1.74;1.63;;;;;;;2.56;85.84;97502.16;2024020;80;20334;-78
2020/12/05 07:42:46;;;;;;;1.75;1.65;;;;;;;2.55;85.69;97514.97;2023334;80;20304;-79
2020/12/05 07:45:49;;;;;;;2.44;1.84;;;;;;;2.46;85.40;97527.78;2023122;80;20339;-77
2020/12/05 07:48:51;;;;;;;1.50;1.40;;;;;;;2.42;85.81;97520.13;2023507;80;20320;-71
2020/12/05 07:51:53;;;;;;;1.91;1.75;;;;;;;2.34;85.65;97519.28;2022983;80;20332;-72
2020/12/05 07:55:03;;;;;;;2.26;1.59;;;;;;;2.34;85.68;97534.66;2021858;80;20828;-70
2020/12/05 07:58:05;;;;;;;4.16;2.28;;;;;;;2.26;85.42;97546.59;2022765;80;20336;-70
2020/12/05 08:01:08;;;;;;;2.20;2.00;;;;;;;2.21;85.75;97561.13;2018653;80;20850;-73
2020/12/05 08:04:18;;;;;;;2.71;2.20;;;;;;;2.23;86.18;97569.66;2022027;80;20324;-70
2020/12/05 08:07:42;;;;;;;3.00;2.70;;;;;;;2.18;86.04;97570.53;2022582;80;20341;-71
2020/12/05 08:10:44;;;;;;;3.05;2.75;;;;;;;2.36;86.83;97579.03;2022213;80;20376;-71
2020/12/05 08:13:47;;;;;;;4.40;2.86;;;;;;;2.58;87.35;97569.59;2020012;80;20474;-71
2020/12/05 08:16:53;;;;;;;2.76;2.56;;;;;;;2.80;87.44;97561.84;2022278;80;20371;-70
2020/12/05 08:19:56;;;;;;;3.88;2.69;;;;;;;2.95;87.08;97567.78;2022187;80;20355;-70
2020/12/05 08:22:59;;;;;;;2.75;2.55;;;;;;;3.14;86.76;97568.56;2022790;80;20403;-71
2020/12/05 08:26:11;;;;;;;3.31;2.15;;;;;;;3.38;86.35;97559.03;2022380;80;20343;-71
2020/12/05 08:29:14;;;;;;;3.08;2.33;;;;;;;3.62;85.70;97561.47;2022433;80;20357;-70
2020/12/05 08:32:23;;;;;;;2.44;2.24;;;;;;;3.81;85.02;97575.03;2021330;80;20426;-71
2020/12/05 08:35:29;;;;;;;;;;;;;;;4.02;84.39;97567.16;2023036;80;21200;-71
2020/12/05 08:38:31;;;;;;;1.66;1.56;;;;;;;4.26;83.72;97568.66;2022075;80;20067;-70
2020/12/05 08:41:47;;;;;;;1.85;1.69;;;;;;;4.45;82.54;97569.34;2022346;80;20912;-70
2020/12/05 08:44:50;;;;;;;2.11;1.39;;;;;;;4.58;81.75;97570.09;2021962;80;20869;-70
2020/12/05 08:47:54;;;;;;;1.99;1.49;;;;;;;4.55;81.02;97558.13;2021636;80;21044;-70
2020/12/05 08:51:04;;;;;;;2.89;2.47;;;;;;;4.39;80.60;97566.84;2021270;80;20385;-70
2020/12/05 08:54:06;;;;;;;3.03;1.89;;;;;;;4.25;80.64;97582.38;2022181;80;20319;-70
2020/12/05 08:57:09;;;;;;;1.95;1.84;;;;;;;4.09;80.85;97581.63;2021503;80;20353;-70
2020/12/05 09:00:11;;;;;;;2.36;2.16;;;;;;;4.00;81.12;97584.28;2022214;80;21031;-71
2020/12/05 09:03:18;;;;;;;2.04;1.84;;;;;;;3.88;81.25;97608.34;2021417;80;20357;-71
2020/12/05 09:06:21;;;;;;;1.84;1.70;;;;;;;3.83;81.68;97619.50;2021872;80;20323;-70
2020/12/05 09:09:32;;;;;;;1.79;1.69;;;;;;;3.83;82.05;97622.06;2021999;80;21188;-70
2020/12/05 09:12:37;;;;;;;2.22;2.03;;;;;;;3.86;82.10;97625.47;2021128;80;20344;-70
2020/12/05 09:15:52;;;;;;;1.65;1.55;;;;;;;4.02;82.29;97628.78;2021757;80;20328;-70
2020/12/05 09:18:53;;;;;;;1.85;1.65;;;;;;;4.40;82.01;97628.50;2021299;80;20319;-71
2020/12/05 09:21:55;;;;;;;2.13;1.94;;;;;;;4.72;80.70;97607.63;2020859;80;20359;-70
2020/12/05 09:24:57;;;;;;;2.60;1.63;;;;;;;5.02;79.64;97611.59;2022042;80;20319;-71
2020/12/05 09:27:59;;;;;;;1.54;1.44;;;;;;;5.26;78.31;97602.75;2021764;80;20331;-72
2020/12/05 09:31:07;;;;;;;2.86;1.64;;;;;;;5.45;77.38;97609.38;2022099;80;20325;-71
2020/12/05 09:34:08;;;;;;;1.66;1.56;;;;;;;5.57;76.45;97612.66;2021185;80;20324;-71
2020/12/05 09:37:11;;;;;;;1.76;1.66;;;;;;;5.65;76.04;97613.41;2021925;80;20372;-71
2020/12/05 09:40:17;;;;;;;1.67;1.58;;;;;;;5.77;76.00;97628.69;2021974;80;20349;-71
2020/12/05 09:43:19;;;;;;;1.80;1.70;;;;;;;5.92;75.81;97620.75;2022173;80;20332;-71
2020/12/05 09:46:20;;;;;;;1.67;1.58;;;;;;;5.98;74.98;97625.84;2023151;80;20785;-71
2020/12/05 09:49:22;;;;;;;1.92;1.55;;;;;;;6.09;74.91;97633.41;2021097;80;20336;-71
2020/12/05 09:52:24;;;;;;;1.95;1.30;;;;;;;6.15;74.45;97617.88;2020938;80;20332;-72
2020/12/05 09:55:27;;;;;;;1.40;1.30;;;;;;;6.15;74.00;97599.81;2021287;80;21167;-71
2020/12/05 09:58:29;;;;;;;1.46;1.36;;;;;;;6.16;73.42;97588.66;2021224;80;20373;-71
2020/12/05 10:01:31;;;;;;;1.20;1.10;;;;;;;6.13;72.98;97586.13;2021107;80;20607;-71
2020/12/05 10:04:32;;;;;;;1.21;1.11;;;;;;;6.02;72.65;97600.88;2021394;80;20342;-71
2020/12/05 10:07:35;;;;;;;1.21;1.10;;;;;;;5.87;73.88;97601.91;2022262;80;20343;-71
2020/12/05 10:10:36;;;;;;;1.41;1.23;;;;;;;5.75;73.27;97607.28;2021526;80;20375;-70
2020/12/05 10:13:38;;;;;;;2.17;1.13;;;;;;;5.65;73.73;97596.22;2021188;80;20362;-71
2020/12/05 10:16:39;;;;;;;1.24;1.14;;;;;;;5.63;73.88;97600.56;2021730;80;20332;-71
2020/12/05 10:19:47;;;;;;;2.22;1.10;;;;;;;5.56;73.78;97590.34;2021055;80;20381;-71
2020/12/05 10:22:54;;;;;;;1.20;1.09;;;;;;;5.61;74.52;97604.03;2021327;80;20203;-71
2020/12/05 10:25:56;;;;;;;1.33;1.00;;;;;;;5.68;73.99;97600.47;2021368;80;20343;-71
2020/12/05 10:28:57;;;;;;;1.09;1.09;;;;;;;5.73;73.21;97599.53;2021253;80;21015;-71
2020/12/05 10:31:59;;;;;;;0.89;0.89;;;;;;;5.75;72.55;97608.13;2020615;80;20316;-71
2020/12/05 10:35:01;;;;;;;1.08;0.95;;;;;;;5.70;71.62;97594.44;2021411;80;20675;-71
2020/12/05 10:38:02;;;;;;;1.11;0.91;;;;;;;5.76;72.24;97591.78;2021476;80;20334;-71
2020/12/05 10:41:12;;;;;;;1.26;0.90;;;;;;;5.85;72.63;97602.81;2019079;80;20319;-71
2020/12/05 10:44:13;;;;;;;0.95;0.80;;;;;;;5.83;71.29;97604.56;2020963;80;20212;-71
2020/12/05 10:47:15;;;;;;;1.00;0.80;;;;;;;5.81;71.03;97601.16;2020327;80;20316;-71
2020/12/05 10:50:17;;;;;;;0.91;0.73;;;;;;;5.80;70.33;97600.31;2020413;80;20363;-71
2020/12/05 10:53:18;;;;;;;1.14;0.86;;;;;;;5.76;70.34;97601.25;2021608;80;20328;-71
2020/12/05 10:56:24;;;;;;;0.75;0.75;;;;;;;5.80;70.10;97609.78;2020872;80;20338;-70
2020/12/05 10:59:26;;;;;;;1.00;0.70;;;;;;;5.80;70.19;97604.63;2020987;80;20201;-71
2020/12/05 11:02:27;;;;;;;1.67;0.73;;;;;;;5.83;70.26;97597.69;2020595;80;20454;-71
2020/12/05 11:05:29;;;;;;;0.60;0.60;;;;;;;5.87;69.90;97596.78;2021447;80;20792;-70
2020/12/05 11:08:30;;;;;;;1.08;0.73;;;;;;;5.84;68.58;97590.81;2020972;80;21215;-69
2020/12/05 11:11:32;;;;;;;0.60;0.60;;;;;;;5.78;68.79;97622.66;2021055;80;21532;-70
2020/12/05 11:14:34;;;;;;;1.54;0.65;;;;;;;5.76;68.56;97614.97;2020964;80;20373;-71
2020/12/05 11:17:36;;;;;;;3.19;0.74;;;;;;;5.71;67.92;97624.47;2020479;80;20354;-70
2020/12/05 11:20:38;;;;;;;2.55;0.70;;;;;;;5.79;69.12;97623.53;2020884;80;20447;-73
2020/12/05 11:23:39;;;;;;;0.66;0.52;;;;;;;5.88;69.05;97639.69;2021345;80;20327;-71
2020/12/05 11:26:41;;;;;;;0.60;0.60;;;;;;;5.97;69.52;97626.72;2021033;80;20332;-70
2020/12/05 11:29:42;;;;;;;0.70;0.63;;;;;;;6.05;69.61;97627.44;2020961;80;20375;-70
2020/12/05 11:32:44;;;;;;;1.67;0.70;;;;;;;6.14;69.03;97617.88;2022185;80;20361;-70
2020/12/05 11:35:46;;;;;;;0.70;0.61;;;;;;;6.10;67.89;97621.34;2022750;80;20342;-70
2020/12/05 11:38:47;;;;;;;0.60;0.60;;;;;;;6.12;68.84;97624.78;2023230;80;20376;-70
2020/12/05 11:41:49;;;;;;;0.93;0.70;;;;;;;6.18;68.90;97622.97;2021694;80;20833;-71
2020/12/05 11:44:50;;;;;;;1.02;0.60;;;;;;;6.29;68.68;97602.19;2023150;80;20337;-70
2020/12/05 11:47:52;;;;;;;0.90;0.71;;;;;;;6.42;68.00;97595.94;2021856;80;20339;-70
2020/12/05 11:50:54;;;;;;;0.69;0.64;;;;;;;6.49;67.32;97588.97;2022497;80;20362;-70
2020/12/05 11:53:56;;;;;;;0.60;0.60;;;;;;;6.51;67.49;97600.94;2022429;80;20324;-70
2020/12/05 11:56:57;;;;;;;0.88;0.61;;;;;;;6.57;67.38;97599.97;2025865;80;20352;-70
2020/12/05 11:59:59;;;;;;;0.76;0.65;;;;;;;6.71;67.46;97584.28;2022344;80;20369;-70
2020/12/05 12:03:00;;;;;;;0.76;0.69;;;;;;;6.76;67.51;97605.66;2021804;80;20347;-72
2020/12/05 12:06:03;;;;;;;0.59;0.59;;;;;;;6.79;68.06;97610.75;2022164;80;20350;-71
2020/12/05 12:09:07;;;;;;;0.71;0.71;;;;;;;6.78;67.03;97589.28;2021919;80;20796;-70
2020/12/05 12:12:08;;;;;;;0.91;0.64;;;;;;;6.74;67.16;97591.94;2022280;80;20333;-70
2020/12/05 12:15:14;;;;;;;0.60;0.60;;;;;;;6.71;67.03;97610.06;2021910;80;20340;-71
2020/12/05 12:18:17;;;;;;;0.77;0.61;;;;;;;6.67;67.26;97653.13;2021755;80;20323;-71
2020/12/05 12:21:23;;;;;;;0.68;0.68;;;;;;;6.65;67.50;97649.72;2021985;80;21063;-71
2020/12/05 12:24:25;;;;;;;1.04;0.61;;;;;;;6.61;66.67;97643.72;2021916;80;20331;-71
2020/12/05 12:27:27;;;;;;;1.45;0.73;;;;;;;6.57;67.12;97673.03;2022115;80;20368;-71
2020/12/05 12:30:28;;;;;;;0.60;0.60;;;;;;;6.52;67.48;97663.69;2022870;80;21158;-71
2020/12/05 12:33:30;;;;;;;0.60;0.60;;;;;;;6.48;66.15;97682.66;2021632;80;20320;-72
2020/12/05 12:36:32;;;;;;;0.68;0.60;;;;;;;6.48;66.39;97686.09;2022044;80;20659;-71
2020/12/05 12:39:34;;;;;;;0.64;0.60;;;;;;;6.50;66.07;97676.59;2022454;80;20369;-71
2020/12/05 12:42:36;;;;;;;0.73;0.54;;;;;;;6.53;65.64;97667.97;2022175;80;20304;-71
2020/12/05 12:45:38;;;;;;;0.40;0.40;;;;;;;6.57;66.36;97665.28;2021832;80;20347;-70
2020/12/05 12:48:40;;;;;;;0.50;0.50;;;;;;;6.65;66.22;97655.72;2021863;80;20975;-71
2020/12/05 12:51:42;;;;;;;0.60;0.60;;;;;;;6.64;67.05;97659.19;2022023;80;20300;-70
2020/12/05 12:54:43;;;;;;;0.85;0.50;;;;;;;6.54;66.88;97662.78;2022538;80;20323;-70
2020/12/05 12:57:47;;;;;;;1.20;0.55;;;;;;;6.47;66.76;97650.03;2021893;80;20316;-71
2020/12/05 13:00:48;;;;;;;0.90;0.60;;;;;;;6.47;66.17;97652.59;2022145;80;20369;-71
2020/12/05 13:03:50;;;;;;;0.75;0.50;;;;;;;6.50;66.60;97665.44;2021670;80;20312;-71
2020/12/05 13:06:56;;;;;;;0.69;0.46;;;;;;;6.55;67.32;97658.47;2022540;80;21151;-70
2020/12/05 13:09:59;;;;;;;1.84;1.31;;;;;;;6.55;67.17;97661.91;2021024;80;20400;-72
2020/12/05 13:13:01;;;;;;;1.39;0.64;;;;;;;6.50;67.14;97643.06;2019780;80;20327;-71
2020/12/05 13:16:03;;;;;;;1.79;0.54;;;;;;;6.46;66.86;97631.09;2019705;80;20349;-71
2020/12/05 13:19:04;;;;;;;0.59;0.50;;;;;;;6.40;66.79;97623.47;2021771;80;20323;-71
2020/12/05 13:22:06;;;;;;;0.65;0.65;;;;;;;6.35;67.12;97605.50;2020944;80;20349;-71
2020/12/05 13:25:08;;;;;;;0.56;0.50;;;;;;;6.34;67.12;97600.38;2021326;80;20877;-71
2020/12/05 13:28:09;;;;;;;0.85;0.40;;;;;;;6.30;67.46;97612.47;2021450;80;20327;-70
2020/12/05 13:31:11;;;;;;;0.40;0.40;;;;;;;6.30;67.56;97604.75;2021714;80;20316;-70
2020/12/05 13:34:12;;;;;;;1.25;0.51;;;;;;;6.26;66.79;97613.38;2021526;80;20357;-71
2020/12/05 13:37:14;;;;;;;0.61;0.59;;;;;;;6.30;65.74;97614.19;2021772;80;20324;-70
2020/12/05 13:40:16;;;;;;;0.69;0.40;;;;;;;6.34;64.67;97608.97;2021754;80;20890;-70
2020/12/05 13:43:17;;;;;;;1.36;0.40;;;;;;;6.39;65.02;97608.03;2021357;80;20353;-71
2020/12/05 13:46:20;;;;;;;0.60;0.40;;;;;;;6.40;65.74;97617.47;2020889;80;20345;-70
2020/12/05 13:49:23;;;;;;;0.40;0.40;;;;;;;6.34;64.83;97616.69;2021143;80;20345;-70
2020/12/05 13:52:24;;;;;;;0.90;0.64;;;;;;;6.35;65.31;97596.94;2020644;80;20941;-71
2020/12/05 13:55:26;;;;;;;1.08;0.59;;;;;;;6.32;66.47;97591.81;2020729;80;20324;-70
2020/12/05 13:58:27;;;;;;;0.50;0.50;;;;;;;6.29;66.75;97591.88;2021116;80;20389;-71
2020/12/05 14:01:29;;;;;;;0.66;0.66;;;;;;;6.26;67.29;97597.06;2021413;80;20311;-71
2020/12/05 14:04:30;;;;;;;2.05;0.60;;;;;;;6.25;67.52;97592.78;2021835;80;20342;-71
2020/12/05 14:07:33;;;;;;;0.64;0.64;;;;;;;6.25;67.67;97595.34;2021251;80;20425;-70
2020/12/05 14:10:34;;;;;;;1.36;0.50;;;;;;;6.18;67.75;97589.47;2022396;80;20328;-70
2020/12/05 14:13:36;;;;;;;2.49;0.95;;;;;;;6.18;67.76;97596.34;2021045;80;20324;-71
2020/12/05 14:16:38;;;;;;;0.85;0.70;;;;;;;6.15;68.25;97607.56;2021168;80;20344;-70
2020/12/05 14:19:41;;;;;;;0.75;0.61;;;;;;;6.06;68.65;97610.25;2021700;80;20357;-71
2020/12/05 14:22:43;;;;;;;0.96;0.70;;;;;;;6.00;68.84;97612.94;2020914;80;20441;-71
2020/12/05 14:25:45;;;;;;;1.71;0.70;;;;;;;5.93;69.05;97612.19;2021199;80;20525;-71
2020/12/05 14:28:46;;;;;;;1.10;0.71;;;;;;;5.84;68.86;97621.72;2021159;80;20175;-71
2020/12/05 14:31:48;;;;;;;1.90;0.71;;;;;;;5.76;69.17;97606.41;2020673;80;20359;-71